Impacts METAR Board INFO
IDs:

KLAX - Los Angeles Intl, CA, US

Updated at: 0350 UTC 20 Feb 2018
Potential Impact None Slight Moderate High
Time19/15Z 19/16Z 19/17Z 19/18Z 19/19Z 19/20Z 19/21Z 19/22Z 19/23Z 20/00Z 20/01Z 20/02Z 20/03Z
VIS10 10 10 10 10 10 10 10 10 10 10 10 10
CIG-- -- -- -- -- -- -- -- -- -- 70 -- --
CoverSCTSCTFEWFEWFEWSCTSCTSCTFEWSCTBKNFEWCLR
FltCatVFRVFRVFRVFRVFRVFRVFRVFRVFRVFRVFRVFRVFR
WX--------------------------
WDir33034031029025026026026026027010350360
WSpd10 7 9 10 12 24 29 26 28 22 9 8 11
WGst16 16 -- -- -- -- -- -- -- 28 16 18 18
Raw hourly METARs
KLAX 191453Z 33010G16KT 10SM FEW035 SCT050 09/M06 A2990 RMK AO2 SLP124 T00941056 53025
KLAX 191553Z 34007G16KT 310V010 10SM SCT045 10/M06 A2993 RMK AO2 SLP135 T01001056
KLAX 191653Z 31009KT 10SM FEW050 FEW070 12/M06 A2995 RMK AO2 SLP139 T01171056
KLAX 191753Z 29010KT 10SM FEW047 FEW075 13/M06 A2996 RMK AO2 SLP143 T01281056 10128 20094 51020
KLAX 191853Z 25012KT 10SM FEW010 FEW050 13/M05 A2995 RMK AO2 SLP142 T01331050
KLAX 191953Z 26024KT 10SM FEW012 SCT050 14/M02 A2992 RMK AO2 PK WND 25027/1946 SLP132 T01441022
KLAX 192053Z 26029KT 10SM FEW010 SCT055 14/M01 A2991 RMK AO2 PK WND 26033/2053 SLP126 T01441006 58017
KLAX 192153Z 26026KT 10SM SCT010 SCT065 14/01 A2990 RMK AO2 PK WND 26036/2118 SLP123 T01440006
KLAX 192253Z 26028KT 10SM FEW090 14/03 A2989 RMK AO2 PK WND 26034/2240 SLP122 T01390028
KLAX 192353Z 27022G28KT 10SM SCT070 SCT090 14/01 A2990 RMK AO2 PK WND 27032/2302 SLP122 VIRGA E T01390011 10150 20122 55004
KLAX 200053Z 01009G16KT 10SM BKN070 12/M06 A2991 RMK AO2 PK WND 26027/0008 RAB16E45 SLP128 P0000 T01221056
KLAX 200153Z 35008G18KT 10SM FEW060 12/M09 A2993 RMK AO2 SLP134 T01171089
KLAX 200253Z 36011G18KT 10SM CLR 11/M08 A2996 RMK AO2 SLP144 60000 T01111078 53020